Airport View

Enter AWOS ICAO identifier for current METAR.

ex. KFNL

KSUA 022310Z AUTO 10013G17KT SCT023 BKN037 OVC046 27/21 A3007 RMK AO2 PWINO

2 Jun 2020 23:19

Phone: 772-692-7399

Other Area AWOS: KFPR - KVRB - KPBI - KOBE

TAF KSUA 021727Z 0218/0318 10015G22KT P6SM VCSH BKN030 TEMPO 0218/0220 2SM +SHRA BKN020 FM030000 10008KT P6SM VCSH SCT025 BKN040 FM031200 11010G15KT P6SM SCT035 BKN040 FM031700 11015G20KT P6SM VCSH SCT035 BKN040